createdAt,value
2023-04-15T00:02:41.214Z,99746.66
2023-04-15T00:07:43.342Z,99746.66
2023-04-15T00:12:45.326Z,99752.00
2023-04-15T00:17:47.350Z,99742.25
2023-04-15T00:22:49.114Z,99731.63
2023-04-15T00:27:51.044Z,99738.72
2023-04-15T00:32:53.008Z,99730.75
2023-04-15T00:37:55.138Z,99736.13
2023-04-15T00:42:57.152Z,99728.16
2023-04-15T00:47:59.513Z,99732.56
2023-04-15T00:53:01.500Z,99733.50
2023-04-15T00:58:03.540Z,99729.97
2023-04-15T01:03:05.605Z,99728.22
2023-04-15T01:08:07.651Z,99720.28
2023-04-15T01:13:09.687Z,99726.47
2023-04-15T01:18:11.672Z,99721.19
2023-04-15T01:23:13.978Z,99729.16
2023-04-15T01:28:16.725Z,99733.63
2023-04-15T01:33:18.825Z,99729.25
2023-04-15T01:38:20.887Z,99723.88
2023-04-15T01:43:22.748Z,99731.88
2023-04-15T01:48:24.769Z,99726.66
2023-04-15T01:53:26.701Z,99731.00
2023-04-15T01:58:28.674Z,99728.38
2023-04-15T02:03:30.729Z,99722.19
2023-04-15T02:08:32.766Z,99731.03
2023-04-15T02:13:34.797Z,99722.19
2023-04-15T02:18:36.722Z,99720.44
2023-04-15T02:23:38.969Z,99714.22
2023-04-15T02:28:40.972Z,99728.47
2023-04-15T02:33:42.785Z,99722.31
2023-04-15T02:38:44.802Z,99729.41
2023-04-15T02:43:46.533Z,99729.41
2023-04-15T02:48:48.750Z,99726.75
2023-04-15T02:53:51.219Z,99732.97
2023-04-15T02:58:56.516Z,99735.66
2023-04-15T03:03:58.673Z,99737.41
2023-04-15T03:09:01.314Z,99741.88
2023-04-15T03:14:03.499Z,99752.53
2023-04-15T03:19:05.495Z,99749.91
2023-04-15T03:24:07.293Z,99749.84
2023-04-15T03:29:09.373Z,99743.69
2023-04-15T03:34:11.376Z,99749.91
2023-04-15T03:39:13.480Z,99749.03
2023-04-15T03:44:15.332Z,99750.88
2023-04-15T03:49:17.463Z,99748.28
2023-04-15T03:54:19.488Z,99754.53
2023-04-15T03:59:21.790Z,99763.38
2023-04-15T04:04:24.328Z,99757.22
2023-04-15T04:09:26.401Z,99757.25
2023-04-15T04:14:30.133Z,99764.34
2023-04-15T04:19:32.069Z,99767.91
2023-04-15T04:24:34.174Z,99770.63
2023-04-15T04:29:36.391Z,99764.44
2023-04-15T04:34:38.324Z,99768.00
2023-04-15T04:39:40.658Z,99764.47
2023-04-15T04:44:42.971Z,99773.34
2023-04-15T04:49:45.565Z,99770.72
2023-04-15T04:54:48.098Z,99773.47
2023-04-15T04:59:50.285Z,99773.47
2023-04-15T05:04:54.644Z,99776.19
2023-04-15T05:09:57.024Z,99790.38
2023-04-15T05:14:59.061Z,99780.66
2023-04-15T05:20:02.644Z,99779.81
2023-04-15T05:25:05.185Z,99780.69
2023-04-15T05:30:07.751Z,99786.09
2023-04-15T05:35:09.955Z,99781.63
2023-04-15T05:40:12.244Z,99779.84
2023-04-15T05:45:14.224Z,99787.00
2023-04-15T05:50:16.421Z,99788.78
2023-04-15T05:55:19.785Z,99784.34
2023-04-15T06:00:22.601Z,99794.13
2023-04-15T06:05:24.963Z,99801.22
2023-04-15T06:10:27.091Z,99800.38
2023-04-15T06:15:29.141Z,99807.47
2023-04-15T06:20:31.843Z,99813.66
2023-04-15T06:25:34.625Z,99811.91
2023-04-15T06:30:39.389Z,99804.84
2023-04-15T06:35:43.264Z,99818.13
2023-04-15T06:40:46.671Z,99811.94
2023-04-15T06:45:49.235Z,99827.88
2023-04-15T06:50:52.751Z,99827.00
2023-04-15T06:55:54.956Z,99826.09
2023-04-15T07:00:59.026Z,99834.09
2023-04-15T07:06:02.079Z,99847.34
2023-04-15T07:11:04.154Z,99843.84
2023-04-15T07:16:06.089Z,99842.91
2023-04-15T07:21:08.087Z,99850.88
2023-04-15T07:26:10.166Z,99847.34
2023-04-15T07:31:12.579Z,99851.72
2023-04-15T07:36:15.904Z,99851.72
2023-04-15T07:41:18.121Z,99848.19
2023-04-15T07:46:32.915Z,99844.66
2023-04-15T07:51:37.650Z,99855.31
2023-04-15T07:56:40.581Z,99854.38
2023-04-15T08:01:45.516Z,99862.38
2023-04-15T08:06:54.026Z,99861.47
2023-04-15T08:11:57.950Z,99862.38
2023-04-15T08:17:02.819Z,99859.72
2023-04-15T08:22:05.599Z,99860.63
2023-04-15T08:27:18.386Z,99864.16
2023-04-15T08:32:21.044Z,99865.03
2023-04-15T08:37:23.485Z,99859.69
2023-04-15T08:42:33.119Z,99857.91
2023-04-15T08:47:41.895Z,99864.06
2023-04-15T08:52:46.477Z,99862.31
2023-04-15T08:57:51.087Z,99865.78
2023-04-15T09:02:54.873Z,99859.53
2023-04-15T09:07:57.058Z,99864.78
2023-04-15T09:12:59.333Z,99871.88
2023-04-15T09:18:01.678Z,99863.91
2023-04-15T09:23:13.733Z,99862.06
2023-04-15T09:28:24.086Z,99859.41
2023-04-15T09:33:27.545Z,99863.81
2023-04-15T09:38:29.832Z,99861.09
2023-04-15T09:43:42.879Z,99873.50
2023-04-15T09:48:45.133Z,99869.03
2023-04-15T09:53:47.195Z,99875.16
2023-04-15T09:59:06.153Z,99877.81
2023-04-15T10:04:10.694Z,99883.09
2023-04-15T10:09:19.123Z,99879.53
2023-04-15T10:14:25.421Z,99883.91
2023-04-15T10:19:29.985Z,99882.94
2023-04-15T10:24:39.154Z,99885.53
2023-04-15T10:29:44.911Z,99882.78
2023-04-15T10:34:49.450Z,99886.25
2023-04-15T10:40:23.173Z,99888.03
2023-04-15T10:45:34.458Z,99884.47
2023-04-15T10:50:40.386Z,99884.41
2023-04-15T10:55:43.753Z,99880.84
2023-04-15T11:00:53.476Z,99893.28
2023-04-15T11:05:56.965Z,99884.34
2023-04-15T11:11:07.752Z,99888.75
2023-04-15T11:16:10.306Z,99889.56
2023-04-15T11:21:14.958Z,99890.41
2023-04-15T11:26:17.486Z,99890.41
2023-04-15T11:31:20.477Z,99887.66
2023-04-15T11:36:29.250Z,99895.63
2023-04-15T11:41:31.472Z,99893.84
2023-04-15T11:46:33.771Z,99900.00
2023-04-15T11:51:38.509Z,99903.47
2023-04-15T11:56:40.774Z,99905.16
2023-04-15T12:01:47.457Z,99911.34
2023-04-15T12:06:51.088Z,99901.50
2023-04-15T12:11:54.140Z,99912.09
2023-04-15T12:17:07.618Z,99920.91
2023-04-15T12:22:13.639Z,99917.34
2023-04-15T12:27:17.986Z,99910.13
2023-04-15T12:32:21.411Z,99922.38
2023-04-15T12:37:23.798Z,99917.78
2023-04-15T12:42:25.955Z,99923.84
2023-04-15T12:47:34.533Z,99925.56
2023-04-15T12:52:36.637Z,99927.25
2023-04-15T12:57:46.721Z,99928.13
2023-04-15T13:02:55.939Z,99931.63
2023-04-15T13:08:00.132Z,99935.13
2023-04-15T13:13:02.507Z,99934.16
2023-04-15T13:18:07.419Z,99936.72
2023-04-15T13:23:10.190Z,99936.59
2023-04-15T13:28:12.520Z,99942.66
2023-04-15T13:33:14.771Z,99943.38
2023-04-15T13:38:17.033Z,99944.16
2023-04-15T13:43:19.296Z,99947.56
2023-04-15T13:48:21.586Z,99948.28
2023-04-15T13:53:37.710Z,99950.78
2023-04-15T13:58:41.813Z,99947.97
2023-04-15T14:03:44.168Z,99956.78
2023-04-15T14:08:46.998Z,99956.69
2023-04-15T14:13:49.126Z,99975.44
2023-04-15T14:18:51.251Z,99980.91
2023-04-15T14:23:53.318Z,99979.19
2023-04-15T14:28:55.587Z,99975.59
2023-04-15T14:33:58.026Z,99987.28
2023-04-15T14:39:00.503Z,99987.28
2023-04-15T14:44:03.245Z,99990.88
2023-04-15T14:49:05.843Z,100002.41
2023-04-15T14:54:08.227Z,100008.66
2023-04-15T14:59:10.438Z,100013.19
2023-04-15T15:04:14.078Z,100018.59
2023-04-15T15:09:16.610Z,100012.44
2023-04-15T15:14:18.799Z,100022.25
2023-04-15T15:19:21.048Z,100025.84
2023-04-15T15:24:23.545Z,100030.28
2023-04-15T15:29:25.859Z,100032.53
2023-04-15T15:34:28.440Z,100040.50
2023-04-15T15:39:37.336Z,100041.06
2023-04-15T15:44:52.036Z,100048.13
2023-04-15T15:50:06.497Z,100061.53
2023-04-15T15:55:12.824Z,100072.22
2023-04-15T16:00:19.941Z,100074.94
2023-04-15T16:05:31.354Z,100088.34
2023-04-15T16:10:54.275Z,100089.28
2023-04-15T16:16:07.456Z,100088.47
2023-04-15T16:21:10.656Z,100093.78
2023-04-15T16:32:35.723Z,100092.25
2023-04-15T16:37:42.709Z,100095.88
2023-04-15T16:54:08.870Z,100129.84
2023-04-15T16:59:19.282Z,100139.69
2023-04-15T17:04:49.399Z,100145.09
2023-04-15T17:09:53.308Z,100145.16
2023-04-15T17:14:57.443Z,100150.50
2023-04-15T17:20:00.318Z,100162.09
2023-04-15T17:25:03.374Z,100160.41
2023-04-15T17:30:07.991Z,100162.25
2023-04-15T17:35:11.246Z,100172.97
2023-04-15T17:40:16.090Z,100168.72
2023-04-15T17:45:19.490Z,100187.34
2023-04-15T17:50:26.249Z,100191.88
2023-04-15T17:55:36.521Z,100202.53
2023-04-15T18:00:44.069Z,100209.75
2023-04-15T18:05:52.737Z,100220.41
2023-04-15T18:16:29.963Z,100230.31
2023-04-15T18:21:42.268Z,100226.84
2023-04-15T18:26:49.314Z,100248.19
2023-04-15T18:31:58.418Z,100243.88
2023-04-15T18:37:20.614Z,100247.50
2023-04-15T18:42:26.779Z,100258.22
2023-04-15T18:47:35.179Z,100254.75
2023-04-15T18:52:44.324Z,100251.28
2023-04-15T18:57:49.004Z,100262.88
2023-04-15T19:02:56.709Z,100254.09
2023-04-15T19:08:01.857Z,100258.56
2023-04-15T19:13:06.182Z,100268.44
2023-04-15T19:18:15.353Z,100277.34
2023-04-15T19:29:02.998Z,100284.56
2023-04-15T19:34:06.917Z,100291.66
2023-04-15T19:49:59.694Z,100290.06
2023-04-15T19:55:02.270Z,100297.19
2023-04-15T20:00:04.369Z,100306.09
2023-04-15T20:05:10.083Z,100314.09
2023-04-15T20:10:13.238Z,100311.50
2023-04-15T20:15:16.134Z,100317.75
2023-04-15T20:20:18.078Z,100315.13
2023-04-15T20:25:19.963Z,100324.91
2023-04-15T20:30:22.031Z,100335.56
2023-04-15T20:35:25.199Z,100330.28
2023-04-15T20:40:27.220Z,100331.25
2023-04-15T20:45:29.092Z,100335.72
2023-04-15T20:50:30.941Z,100345.47
2023-04-15T20:55:32.733Z,100341.97
2023-04-15T21:00:34.870Z,100346.41
2023-04-15T21:05:36.734Z,100350.84
2023-04-15T21:10:40.291Z,100357.06
2023-04-15T21:15:42.174Z,100358.88
2023-04-15T21:20:44.029Z,100364.19
2023-04-15T21:25:46.081Z,100366.84
2023-04-15T21:30:48.288Z,100370.41
2023-04-15T21:35:50.345Z,100373.06
2023-04-15T21:40:52.288Z,100368.66
2023-04-15T21:46:23.469Z,100373.09
2023-04-15T21:51:16.411Z,100374.88
2023-04-15T21:56:18.087Z,100380.19
2023-04-15T22:01:19.968Z,100383.72
2023-04-15T22:06:22.058Z,100394.34
2023-04-15T22:11:27.942Z,100395.22
2023-04-15T22:16:30.164Z,100399.66
2023-04-15T22:21:32.196Z,100397.91
2023-04-15T22:26:34.104Z,100411.16
2023-04-15T22:31:35.979Z,100407.63
2023-04-15T22:36:37.841Z,100406.75
2023-04-15T22:41:39.688Z,100415.59
2023-04-15T22:46:41.731Z,100411.19
2023-04-15T22:51:43.898Z,100416.50
2023-04-15T22:56:45.977Z,100420.03
2023-04-15T23:01:47.963Z,100425.34
2023-04-15T23:06:49.972Z,100430.66
2023-04-15T23:11:51.931Z,100420.06
2023-04-15T23:16:54.501Z,100421.84
2023-04-15T23:21:56.364Z,100428.91
2023-04-15T23:26:58.259Z,100429.81
2023-04-15T23:32:00.260Z,100425.38
2023-04-15T23:37:02.221Z,100428.94
2023-04-15T23:42:04.284Z,100426.28
2023-04-15T23:47:06.167Z,100430.72
2023-04-15T23:52:08.262Z,100444.84
2023-04-15T23:57:10.218Z,100444.84
